createdAt,value
2018-12-02T00:01:12.156Z,7.80
2018-12-02T00:04:16.275Z,4.67
2018-12-02T00:07:20.401Z,4.20
2018-12-02T00:10:25.112Z,7.60
2018-12-02T00:13:29.158Z,5.50
2018-12-02T00:16:33.203Z,6.33
2018-12-02T00:19:37.260Z,6.00
2018-12-02T00:22:42.005Z,7.53
2018-12-02T00:25:46.055Z,7.80
2018-12-02T00:28:50.196Z,8.37
2018-12-02T00:31:54.252Z,11.13
2018-12-02T00:34:58.335Z,7.60
2018-12-02T00:38:03.696Z,5.70
2018-12-02T00:41:07.813Z,6.73
2018-12-02T00:44:11.906Z,5.93
2018-12-02T00:47:15.957Z,5.00
2018-12-02T00:50:20.084Z,5.63
2018-12-02T00:53:24.172Z,6.50
2018-12-02T00:56:31.298Z,5.33
2018-12-02T00:59:41.941Z,5.13
2018-12-02T01:02:47.220Z,8.13
2018-12-02T01:05:51.295Z,5.60
2018-12-02T01:08:55.579Z,4.63
2018-12-02T01:11:59.656Z,9.10
2018-12-02T01:15:04.228Z,6.13
2018-12-02T01:18:08.894Z,9.30
2018-12-02T01:21:12.869Z,4.77
2018-12-02T01:24:16.929Z,4.87
2018-12-02T01:27:20.990Z,7.23
2018-12-02T01:30:25.640Z,5.00
2018-12-02T01:33:29.942Z,11.10
2018-12-02T01:36:33.959Z,5.43
2018-12-02T01:39:38.006Z,7.80
2018-12-02T01:42:42.105Z,4.70
2018-12-02T01:45:46.223Z,5.57
2018-12-02T01:48:50.265Z,4.03
2018-12-02T01:51:54.336Z,5.23
2018-12-02T01:54:58.430Z,7.53
2018-12-02T01:58:02.462Z,4.80
2018-12-02T02:01:06.548Z,5.63
2018-12-02T02:04:10.849Z,4.47
2018-12-02T02:07:14.965Z,5.93
2018-12-02T02:10:25.227Z,5.03
2018-12-02T02:13:29.261Z,4.40
2018-12-02T02:16:33.721Z,4.87
2018-12-02T02:19:37.763Z,3.77
2018-12-02T02:22:42.619Z,5.70
2018-12-02T02:25:46.719Z,4.50
2018-12-02T02:28:50.772Z,3.87
2018-12-02T02:31:54.954Z,7.20
2018-12-02T02:34:58.993Z,3.73
2018-12-02T02:38:03.111Z,6.20
2018-12-02T02:41:07.188Z,4.37
2018-12-02T02:44:11.240Z,5.67
2018-12-02T02:47:15.337Z,4.90
2018-12-02T02:50:23.519Z,5.40
2018-12-02T02:53:27.692Z,5.43
2018-12-02T02:56:31.777Z,4.27
2018-12-02T02:59:36.203Z,6.53
2018-12-02T03:02:40.612Z,5.63
2018-12-02T03:05:44.673Z,7.40
2018-12-02T03:08:48.697Z,7.80
2018-12-02T03:11:52.847Z,8.43
2018-12-02T03:14:56.888Z,10.03
2018-12-02T03:18:01.149Z,10.97
2018-12-02T03:21:05.246Z,4.27
2018-12-02T03:24:09.293Z,7.63
2018-12-02T03:27:14.087Z,7.40
2018-12-02T03:30:21.043Z,7.70
2018-12-02T03:33:25.597Z,7.53
2018-12-02T03:36:29.690Z,7.93
2018-12-02T03:39:33.813Z,7.60
2018-12-02T03:42:37.910Z,6.37
2018-12-02T03:45:42.008Z,6.07
2018-12-02T03:48:46.289Z,5.70
2018-12-02T03:51:50.957Z,3.60
2018-12-02T03:54:55.044Z,6.63
2018-12-02T03:57:59.122Z,10.57
2018-12-02T04:01:03.443Z,9.63
2018-12-02T04:04:07.581Z,10.93
2018-12-02T04:07:11.717Z,7.47
2018-12-02T04:10:16.658Z,8.03
2018-12-02T04:13:20.703Z,6.00
2018-12-02T04:16:25.459Z,7.77
2018-12-02T04:19:29.512Z,9.00
2018-12-02T04:22:33.561Z,8.93
2018-12-02T04:25:37.599Z,5.33
2018-12-02T04:28:41.675Z,10.40
2018-12-02T04:31:45.814Z,5.67
2018-12-02T04:34:49.871Z,6.10
2018-12-02T04:37:53.955Z,10.57
2018-12-02T04:40:58.567Z,7.73
2018-12-02T04:44:02.679Z,11.77
2018-12-02T04:47:06.787Z,8.50
2018-12-02T04:50:13.275Z,13.90
2018-12-02T04:53:17.314Z,6.10
2018-12-02T04:56:21.978Z,5.37
2018-12-02T04:59:26.047Z,4.93
2018-12-02T05:02:30.203Z,8.43
2018-12-02T05:05:34.302Z,5.90
2018-12-02T05:08:38.344Z,14.67
2018-12-02T05:11:42.422Z,10.20
2018-12-02T05:14:46.511Z,12.00
2018-12-02T05:17:50.916Z,6.83
2018-12-02T05:20:55.767Z,6.20
2018-12-02T05:23:59.838Z,13.70
2018-12-02T05:27:03.909Z,5.93
2018-12-02T05:30:12.679Z,6.73
2018-12-02T05:33:17.002Z,7.50
2018-12-02T05:36:21.091Z,6.93
2018-12-02T05:39:25.173Z,6.50
2018-12-02T05:42:32.165Z,6.20
2018-12-02T05:45:36.277Z,7.80
2018-12-02T05:48:40.353Z,4.37
2018-12-02T05:51:44.401Z,6.53
2018-12-02T05:54:48.548Z,6.40
2018-12-02T05:57:53.085Z,6.60
2018-12-02T06:00:57.362Z,5.07
2018-12-02T06:04:01.503Z,4.97
2018-12-02T06:07:06.026Z,5.43
2018-12-02T06:10:14.168Z,4.93
2018-12-02T06:13:18.258Z,4.30
2018-12-02T06:16:22.324Z,6.73
2018-12-02T06:19:30.348Z,6.50
2018-12-02T06:22:34.409Z,9.40
2018-12-02T06:25:38.477Z,6.07
2018-12-02T06:28:42.540Z,5.10
2018-12-02T06:31:46.627Z,6.93
2018-12-02T06:34:50.815Z,6.27
2018-12-02T06:37:57.123Z,6.03
2018-12-02T06:41:01.819Z,4.77
2018-12-02T06:44:05.904Z,4.90
2018-12-02T06:47:11.119Z,6.43
2018-12-02T06:50:17.277Z,6.50
2018-12-02T06:53:21.897Z,6.63
2018-12-02T06:56:31.857Z,4.63
2018-12-02T06:59:47.435Z,6.10
2018-12-02T07:02:57.954Z,6.47
2018-12-02T07:06:02.125Z,4.77
2018-12-02T07:09:08.479Z,5.23
2018-12-02T07:12:12.643Z,4.13
2018-12-02T07:15:16.718Z,4.77
2018-12-02T07:18:24.872Z,11.70
2018-12-02T07:21:33.000Z,5.40
2018-12-02T07:24:42.212Z,7.40
2018-12-02T07:27:46.470Z,3.33
2018-12-02T07:30:50.530Z,3.97
2018-12-02T07:33:54.630Z,3.27
2018-12-02T07:37:00.580Z,3.40
2018-12-02T07:40:17.427Z,4.53
2018-12-02T07:43:21.554Z,4.10
2018-12-02T07:46:25.622Z,4.63
2018-12-02T07:49:30.186Z,3.30
2018-12-02T07:52:34.370Z,4.87
2018-12-02T07:55:38.469Z,2.20
2018-12-02T07:58:42.552Z,2.50
2018-12-02T08:01:46.593Z,3.17
2018-12-02T08:04:50.649Z,4.20
2018-12-02T08:07:55.471Z,3.57
2018-12-02T08:10:59.871Z,3.20
2018-12-02T08:14:03.975Z,2.97
2018-12-02T08:17:08.148Z,4.33
2018-12-02T08:20:13.414Z,2.33
2018-12-02T08:23:17.481Z,2.50
2018-12-02T08:26:21.630Z,2.57
2018-12-02T08:29:25.766Z,3.30
2018-12-02T08:32:30.514Z,2.83
2018-12-02T08:35:34.585Z,2.40
2018-12-02T08:38:38.730Z,2.53
2018-12-02T08:41:42.845Z,2.33
2018-12-02T08:44:46.931Z,2.27
2018-12-02T08:51:58.441Z,2.53
2018-12-02T08:55:02.527Z,2.17
2018-12-02T08:58:06.612Z,3.20
2018-12-02T09:01:10.739Z,1.97
2018-12-02T09:04:14.875Z,2.17
2018-12-02T09:07:19.151Z,2.23
2018-12-02T09:10:26.138Z,2.60
2018-12-02T09:13:30.188Z,2.90
2018-12-02T09:16:34.401Z,3.13
2018-12-02T09:19:38.453Z,3.67
2018-12-02T09:22:42.565Z,2.63
2018-12-02T09:25:46.669Z,3.37
2018-12-02T09:28:50.810Z,2.50
2018-12-02T09:31:54.949Z,2.40
2018-12-02T09:34:59.663Z,3.20
2018-12-02T09:38:03.796Z,3.07
2018-12-02T09:41:08.243Z,2.37
2018-12-02T09:44:12.655Z,2.80
2018-12-02T09:47:16.817Z,2.60
2018-12-02T09:50:20.953Z,2.70
2018-12-02T09:53:25.113Z,2.47
2018-12-02T09:56:30.372Z,2.17
2018-12-02T09:59:34.606Z,2.33
2018-12-02T10:02:38.947Z,1.97
2018-12-02T10:05:43.153Z,2.17
2018-12-02T10:08:47.626Z,2.07
2018-12-02T10:11:51.845Z,2.07
2018-12-02T10:14:56.086Z,2.03
2018-12-02T10:18:00.222Z,2.33
2018-12-02T10:21:05.492Z,2.43
2018-12-02T10:24:09.663Z,1.70
2018-12-02T10:27:13.869Z,2.20
2018-12-02T10:30:25.654Z,2.50
2018-12-02T10:33:30.022Z,2.13
2018-12-02T10:36:34.127Z,2.50
2018-12-02T10:39:38.993Z,2.33
2018-12-02T10:42:43.461Z,1.70
2018-12-02T10:45:47.584Z,1.80
2018-12-02T10:48:51.985Z,1.67
2018-12-02T10:51:56.121Z,2.13
2018-12-02T10:55:01.132Z,2.13
2018-12-02T10:58:06.887Z,1.63
2018-12-02T11:01:17.972Z,1.50
2018-12-02T11:04:22.064Z,1.83
2018-12-02T11:07:26.137Z,2.00
2018-12-02T11:10:30.456Z,2.10
2018-12-02T11:13:34.631Z,2.10
2018-12-02T11:16:38.702Z,2.00
2018-12-02T11:19:42.883Z,2.70
2018-12-02T11:22:46.981Z,1.77
2018-12-02T11:25:51.057Z,2.70
2018-12-02T11:28:55.142Z,3.10
2018-12-02T11:31:59.352Z,1.60
2018-12-02T11:35:03.492Z,1.20
2018-12-02T11:38:08.499Z,2.20
2018-12-02T11:41:13.150Z,2.30
2018-12-02T11:44:17.272Z,1.43
2018-12-02T11:47:21.471Z,1.70
2018-12-02T11:50:26.572Z,1.90
2018-12-02T11:53:31.431Z,1.60
2018-12-02T11:56:35.488Z,1.80
2018-12-02T11:59:39.551Z,1.73
2018-12-02T12:02:43.645Z,2.57
2018-12-02T12:05:47.700Z,1.70
2018-12-02T12:08:51.807Z,1.20
2018-12-02T12:11:55.880Z,3.20
2018-12-02T12:14:59.972Z,2.93
2018-12-02T12:18:04.381Z,1.60
2018-12-02T12:21:08.467Z,3.13
2018-12-02T12:24:12.543Z,2.43
2018-12-02T12:27:16.709Z,1.53
2018-12-02T12:30:25.081Z,1.63
2018-12-02T12:33:29.162Z,1.70
2018-12-02T12:36:33.331Z,1.57
2018-12-02T12:39:37.975Z,1.50
2018-12-02T12:42:43.360Z,1.40
2018-12-02T12:45:47.581Z,1.70
2018-12-02T12:48:52.951Z,1.40
2018-12-02T12:51:57.556Z,4.23
2018-12-02T12:55:01.631Z,2.53
2018-12-02T12:58:06.233Z,1.87
2018-12-02T13:01:10.346Z,1.10
2018-12-02T13:04:15.238Z,1.43
2018-12-02T13:07:19.522Z,1.23
2018-12-02T13:10:23.761Z,1.57
2018-12-02T13:13:27.944Z,2.70
2018-12-02T13:16:32.485Z,1.60
2018-12-02T13:19:36.537Z,1.33
2018-12-02T13:22:40.822Z,1.20
2018-12-02T13:25:44.972Z,1.47
2018-12-02T13:28:49.120Z,0.87
2018-12-02T13:31:53.609Z,1.10
2018-12-02T13:34:57.733Z,1.93
2018-12-02T13:38:01.781Z,1.33
2018-12-02T13:41:07.285Z,2.13
2018-12-02T13:44:11.747Z,0.77
2018-12-02T13:47:15.944Z,1.10
2018-12-02T13:50:20.813Z,1.30
2018-12-02T13:53:25.017Z,1.77
2018-12-02T13:56:29.125Z,1.33
2018-12-02T13:59:33.294Z,1.00
2018-12-02T14:02:37.399Z,0.83
2018-12-02T14:05:44.287Z,1.07
2018-12-02T14:08:48.505Z,1.27
2018-12-02T14:11:52.726Z,1.30
2018-12-02T14:14:58.145Z,0.90
2018-12-02T14:18:14.453Z,1.70
2018-12-02T14:21:19.481Z,1.87
2018-12-02T14:24:23.530Z,1.30
2018-12-02T14:27:27.658Z,1.40
2018-12-02T14:30:31.757Z,3.13
2018-12-02T14:33:36.046Z,1.70
2018-12-02T14:36:40.096Z,1.37
2018-12-02T14:39:44.300Z,1.00
2018-12-02T14:42:48.524Z,2.20
2018-12-02T14:45:53.257Z,1.43
2018-12-02T14:48:56.900Z,1.00
2018-12-02T14:52:02.175Z,2.60
2018-12-02T14:55:08.242Z,2.47
2018-12-02T14:58:12.381Z,1.40
2018-12-02T15:01:16.619Z,1.40
2018-12-02T15:04:20.916Z,2.87
2018-12-02T15:07:25.039Z,1.83
2018-12-02T15:10:29.141Z,1.40
2018-12-02T15:13:33.849Z,1.27
2018-12-02T15:16:38.415Z,1.17
2018-12-02T15:19:42.612Z,1.03
2018-12-02T15:22:46.709Z,1.30
2018-12-02T15:25:51.278Z,1.93
2018-12-02T15:28:55.478Z,1.00
2018-12-02T15:31:59.996Z,1.70
2018-12-02T15:35:04.410Z,1.10
2018-12-02T15:38:09.164Z,1.47
2018-12-02T15:41:13.337Z,1.57
2018-12-02T15:44:17.592Z,2.07
2018-12-02T15:47:21.776Z,1.63
2018-12-02T15:50:26.104Z,1.20
2018-12-02T15:53:31.115Z,1.50
2018-12-02T15:56:35.924Z,1.40
2018-12-02T15:59:40.102Z,1.23
2018-12-02T16:02:44.342Z,1.30
2018-12-02T16:05:48.470Z,1.50
2018-12-02T16:08:52.642Z,1.60
2018-12-02T16:11:56.801Z,8.00
2018-12-02T16:15:01.042Z,1.37
2018-12-02T16:18:07.882Z,1.50
2018-12-02T16:21:11.957Z,1.50
2018-12-02T16:24:16.030Z,1.60
2018-12-02T16:27:20.141Z,2.23
2018-12-02T16:30:24.383Z,2.80
2018-12-02T16:33:28.521Z,2.20
2018-12-02T16:36:32.838Z,1.33
2018-12-02T16:39:38.177Z,1.67
2018-12-02T16:42:42.254Z,2.23
2018-12-02T16:45:46.394Z,1.60
2018-12-02T16:48:50.529Z,1.80
2018-12-02T16:51:54.591Z,1.90
2018-12-02T16:54:58.727Z,2.20
2018-12-02T16:58:14.162Z,1.90
2018-12-02T17:01:19.920Z,2.40
2018-12-02T17:04:24.387Z,2.50
2018-12-02T17:07:28.664Z,2.40
2018-12-02T17:10:33.422Z,4.17
2018-12-02T17:13:37.593Z,2.13
2018-12-02T17:16:41.742Z,2.20
2018-12-02T17:19:45.826Z,2.70
2018-12-02T17:22:56.549Z,3.90
2018-12-02T17:26:00.656Z,2.20
2018-12-02T17:29:06.174Z,2.07
2018-12-02T17:32:11.964Z,1.90
2018-12-02T17:35:16.158Z,2.87
2018-12-02T17:38:21.933Z,3.03
2018-12-02T17:41:32.766Z,2.60
2018-12-02T17:44:37.290Z,3.27
2018-12-02T17:47:42.131Z,1.93
2018-12-02T17:50:46.200Z,2.57
2018-12-02T17:53:50.311Z,4.13
2018-12-02T17:56:54.491Z,2.70
2018-12-02T17:59:58.569Z,3.07
2018-12-02T18:03:03.544Z,3.87
2018-12-02T18:06:09.268Z,3.13
2018-12-02T18:09:14.739Z,2.50
2018-12-02T18:12:18.814Z,3.63
2018-12-02T18:15:23.015Z,3.50
2018-12-02T18:18:27.138Z,3.70
2018-12-02T18:21:31.247Z,7.90
2018-12-02T18:24:35.877Z,3.53
2018-12-02T18:27:40.054Z,3.13
2018-12-02T18:30:45.313Z,3.47
2018-12-02T18:33:49.453Z,2.97
2018-12-02T18:36:54.675Z,3.47
2018-12-02T18:39:58.859Z,2.43
2018-12-02T18:43:03.342Z,2.57
2018-12-02T18:46:08.120Z,3.27
2018-12-02T18:49:12.221Z,2.57
2018-12-02T18:52:16.282Z,2.00
2018-12-02T18:55:20.299Z,2.50
2018-12-02T18:58:24.419Z,2.43
2018-12-02T19:01:28.488Z,2.27
2018-12-02T19:04:32.577Z,6.10
2018-12-02T19:07:36.844Z,1.80
2018-12-02T19:10:41.289Z,2.17
2018-12-02T19:13:45.938Z,1.80
2018-12-02T19:16:50.083Z,2.60
2018-12-02T19:19:54.191Z,2.00
2018-12-02T19:23:00.214Z,1.70
2018-12-02T19:26:04.350Z,3.37
2018-12-02T19:29:08.610Z,1.60
2018-12-02T19:32:12.806Z,1.67
2018-12-02T19:35:27.244Z,1.97
2018-12-02T19:38:31.340Z,2.13
2018-12-02T19:41:35.514Z,1.97
2018-12-02T19:44:39.961Z,1.80
2018-12-02T19:47:44.095Z,2.03
2018-12-02T19:50:48.866Z,1.73
2018-12-02T19:53:52.952Z,2.53
2018-12-02T19:56:57.089Z,2.00
2018-12-02T20:00:01.357Z,1.97
2018-12-02T20:03:05.498Z,3.40
2018-12-02T20:06:09.666Z,1.90
2018-12-02T20:09:14.608Z,2.83
2018-12-02T20:12:19.349Z,3.23
2018-12-02T20:15:23.471Z,2.10
2018-12-02T20:18:28.323Z,2.20
2018-12-02T20:21:32.556Z,2.10
2018-12-02T20:24:40.699Z,2.53
2018-12-02T20:27:44.838Z,1.67
2018-12-02T20:30:48.958Z,2.10
2018-12-02T20:33:53.402Z,2.60
2018-12-02T20:36:57.600Z,4.80
2018-12-02T20:40:02.046Z,4.10
2018-12-02T20:43:06.310Z,3.03
2018-12-02T20:46:11.298Z,2.87
2018-12-02T20:49:15.643Z,2.17
2018-12-02T20:52:19.739Z,2.63
2018-12-02T20:55:26.078Z,2.70
2018-12-02T20:58:36.604Z,2.50
2018-12-02T21:01:47.495Z,2.80
2018-12-02T21:04:51.587Z,2.97
2018-12-02T21:07:56.102Z,4.20
2018-12-02T21:11:00.251Z,2.47
2018-12-02T21:14:04.442Z,2.50
2018-12-02T21:17:08.519Z,1.83
2018-12-02T21:20:13.617Z,3.10
2018-12-02T21:23:18.463Z,2.47
2018-12-02T21:26:22.625Z,2.43
2018-12-02T21:29:26.762Z,2.60
2018-12-02T21:32:30.889Z,3.03
2018-12-02T21:35:35.198Z,2.47
2018-12-02T21:38:40.219Z,2.87
2018-12-02T21:41:44.372Z,1.83
2018-12-02T21:44:49.083Z,1.87
2018-12-02T21:47:54.694Z,1.70
2018-12-02T21:50:59.115Z,2.30
2018-12-02T21:54:03.222Z,2.43
2018-12-02T21:57:07.444Z,3.03
2018-12-02T22:00:20.022Z,1.40
2018-12-02T22:03:24.368Z,2.03
2018-12-02T22:06:28.452Z,1.77
2018-12-02T22:09:32.690Z,1.73
2018-12-02T22:12:36.852Z,1.57
2018-12-02T22:15:41.196Z,1.60
2018-12-02T22:18:46.122Z,1.50
2018-12-02T22:21:50.178Z,2.13
2018-12-02T22:24:54.474Z,1.63
2018-12-02T22:27:58.568Z,1.50
2018-12-02T22:31:02.709Z,1.60
2018-12-02T22:34:07.290Z,1.60
2018-12-02T22:37:11.768Z,1.47
2018-12-02T22:40:19.086Z,1.63
2018-12-02T22:43:23.236Z,2.30
2018-12-02T22:46:27.353Z,1.93
2018-12-02T22:49:31.518Z,1.57
2018-12-02T22:52:36.227Z,2.07
2018-12-02T22:55:40.276Z,2.00
2018-12-02T22:58:45.079Z,1.67
2018-12-02T23:01:54.438Z,1.60
2018-12-02T23:04:58.680Z,1.60
2018-12-02T23:08:03.100Z,1.50
2018-12-02T23:11:07.818Z,1.60
2018-12-02T23:14:12.343Z,1.50
2018-12-02T23:17:19.272Z,1.53
2018-12-02T23:20:23.890Z,3.67
2018-12-02T23:23:27.949Z,2.00
2018-12-02T23:26:32.029Z,2.13
2018-12-02T23:29:36.205Z,1.87
2018-12-02T23:32:40.889Z,1.67
2018-12-02T23:35:45.322Z,2.00
2018-12-02T23:38:49.426Z,3.03
2018-12-02T23:41:53.646Z,2.37
2018-12-02T23:44:57.767Z,2.73
2018-12-02T23:48:01.965Z,1.80
2018-12-02T23:51:06.051Z,2.17
2018-12-02T23:54:10.903Z,2.73
2018-12-02T23:57:15.978Z,2.20
